createdAt,value
2022-08-22T00:00:11.594Z,57.24
2022-08-22T00:01:28.976Z,57.51
2022-08-22T00:02:34.642Z,57.40
2022-08-22T00:02:42.775Z,55.94
2022-08-22T00:02:58.171Z,57.29
2022-08-22T00:03:02.036Z,54.98
2022-08-22T00:03:03.385Z,55.17
2022-08-22T00:03:46.549Z,56.92
2022-08-22T00:05:01.303Z,57.00
2022-08-22T00:06:15.307Z,57.51
2022-08-22T00:07:25.349Z,57.64
2022-08-22T00:08:39.190Z,57.30
2022-08-22T00:09:52.335Z,57.02
2022-08-22T00:11:00.270Z,57.58
2022-08-22T00:12:16.143Z,57.12
2022-08-22T00:13:25.403Z,57.25
2022-08-22T00:14:38.375Z,57.41
2022-08-22T00:15:44.681Z,57.46
2022-08-22T00:16:59.171Z,57.55
2022-08-22T00:18:11.006Z,57.44
2022-08-22T00:19:23.166Z,57.31
2022-08-22T00:20:33.616Z,56.82
2022-08-22T00:21:46.977Z,57.15
2022-08-22T00:22:55.847Z,56.78
2022-08-22T00:24:09.126Z,56.89
2022-08-22T00:25:45.546Z,57.39
2022-08-22T00:26:52.930Z,57.12
2022-08-22T00:28:01.470Z,57.58
2022-08-22T00:29:07.663Z,57.48
2022-08-22T00:30:14.293Z,56.77
2022-08-22T00:31:29.130Z,56.94
2022-08-22T00:32:36.279Z,56.77
2022-08-22T00:33:42.773Z,56.68
2022-08-22T00:34:52.487Z,57.29
2022-08-22T00:36:07.831Z,57.12
2022-08-22T00:37:21.477Z,56.94
2022-08-22T00:38:30.586Z,57.00
2022-08-22T00:39:39.911Z,57.26
2022-08-22T00:40:56.314Z,56.89
2022-08-22T00:42:41.595Z,56.90
2022-08-22T00:44:09.591Z,56.93
2022-08-22T00:45:40.706Z,56.99
2022-08-22T00:47:05.478Z,56.84
2022-08-22T00:48:35.159Z,57.44
2022-08-22T00:49:58.796Z,57.45
2022-08-22T00:51:34.403Z,57.04
2022-08-22T00:53:08.811Z,57.21
2022-08-22T00:54:21.717Z,57.40
2022-08-22T00:55:49.526Z,57.35
2022-08-22T00:57:11.622Z,57.14
2022-08-22T00:58:45.664Z,57.38
2022-08-22T01:00:13.015Z,56.96
2022-08-22T01:01:20.969Z,57.43
2022-08-22T01:02:33.591Z,57.17
2022-08-22T01:03:56.550Z,56.85
2022-08-22T01:05:17.393Z,57.25
2022-08-22T01:06:27.235Z,57.28
2022-08-22T01:07:53.935Z,57.55
2022-08-22T01:09:13.295Z,57.63
2022-08-22T01:10:33.066Z,56.83
2022-08-22T01:12:13.180Z,56.80
2022-08-22T01:13:28.417Z,57.04
2022-08-22T01:14:41.551Z,57.69
2022-08-22T01:15:46.359Z,57.36
2022-08-22T01:17:16.178Z,57.43
2022-08-22T01:18:46.581Z,57.21
2022-08-22T01:20:22.411Z,57.59
2022-08-22T01:22:02.032Z,57.59
2022-08-22T01:23:46.094Z,57.40
2022-08-22T01:25:31.059Z,57.30
2022-08-22T01:27:04.059Z,57.25
2022-08-22T01:28:55.755Z,57.66
2022-08-22T01:30:18.373Z,57.66
2022-08-22T01:32:03.260Z,57.53
2022-08-22T01:33:43.843Z,57.97
2022-08-22T01:35:29.162Z,57.50
2022-08-22T01:37:13.803Z,57.91
2022-08-22T01:38:44.097Z,57.64
2022-08-22T01:40:29.178Z,58.31
2022-08-22T01:42:07.766Z,57.71
2022-08-22T01:43:59.126Z,57.69
2022-08-22T01:45:16.696Z,57.78
2022-08-22T01:46:32.605Z,57.79
2022-08-22T01:47:41.392Z,58.30
2022-08-22T01:48:49.401Z,58.61
2022-08-22T01:49:57.410Z,57.96
2022-08-22T01:51:12.081Z,58.03
2022-08-22T01:52:21.679Z,58.27
2022-08-22T01:53:31.303Z,57.90
2022-08-22T01:54:45.843Z,57.87
2022-08-22T01:56:06.093Z,57.71
2022-08-22T01:57:10.417Z,58.22
2022-08-22T01:58:18.517Z,57.70
2022-08-22T01:59:25.409Z,57.98
2022-08-22T02:01:03.862Z,57.88
2022-08-22T02:02:23.905Z,58.43
2022-08-22T02:03:33.157Z,58.49
2022-08-22T02:04:43.538Z,58.75
2022-08-22T02:05:54.514Z,58.09
2022-08-22T02:07:03.884Z,58.04
2022-08-22T02:08:23.996Z,58.18
2022-08-22T02:09:38.275Z,58.00
2022-08-22T02:10:55.199Z,57.58
2022-08-22T02:12:21.679Z,57.98
2022-08-22T02:13:36.820Z,58.06
2022-08-22T02:14:44.927Z,58.00
2022-08-22T02:15:52.481Z,58.39
2022-08-22T02:17:09.106Z,57.81
2022-08-22T02:18:17.396Z,58.15
2022-08-22T02:19:30.524Z,57.68
2022-08-22T02:20:40.547Z,58.05
2022-08-22T02:21:47.806Z,58.46
2022-08-22T02:22:58.411Z,57.88
2022-08-22T02:24:15.562Z,57.94
2022-08-22T02:25:25.589Z,58.31
2022-08-22T02:26:43.309Z,57.86
2022-08-22T02:27:57.601Z,58.39
2022-08-22T02:29:05.157Z,57.81
2022-08-22T02:30:11.326Z,58.27
2022-08-22T02:31:18.884Z,58.24
2022-08-22T02:32:29.493Z,58.23
2022-08-22T02:33:42.724Z,57.95
2022-08-22T02:34:56.683Z,57.94
2022-08-22T02:36:03.368Z,58.03
2022-08-22T02:37:15.648Z,58.60
2022-08-22T02:38:27.748Z,58.43
2022-08-22T02:39:37.927Z,58.08
2022-08-22T02:40:47.210Z,58.53
2022-08-22T02:41:56.419Z,58.54
2022-08-22T02:43:03.936Z,58.45
2022-08-22T02:44:17.472Z,58.70
2022-08-22T02:45:28.120Z,58.32
2022-08-22T02:46:41.375Z,58.49
2022-08-22T02:47:58.316Z,57.86
2022-08-22T02:49:12.023Z,58.15
2022-08-22T02:50:24.711Z,58.04
2022-08-22T02:51:35.886Z,58.83
2022-08-22T02:52:50.773Z,58.71
2022-08-22T02:53:57.885Z,58.42
2022-08-22T02:55:07.886Z,58.11
2022-08-22T02:56:15.119Z,58.19
2022-08-22T02:57:24.553Z,58.19
2022-08-22T02:58:39.004Z,58.48
2022-08-22T03:00:07.184Z,58.05
2022-08-22T03:01:42.284Z,58.17
2022-08-22T03:03:00.584Z,58.76
2022-08-22T03:04:26.997Z,58.22
2022-08-22T03:05:41.784Z,58.56
2022-08-22T03:07:00.212Z,58.27
2022-08-22T03:08:09.513Z,58.35
2022-08-22T03:09:25.479Z,58.42
2022-08-22T03:10:36.445Z,58.75
2022-08-22T03:11:43.741Z,58.31
2022-08-22T03:12:58.415Z,58.85
2022-08-22T03:14:07.565Z,58.64
2022-08-22T03:15:17.616Z,58.89
2022-08-22T03:16:28.778Z,58.64
2022-08-22T03:17:35.062Z,58.62
2022-08-22T03:18:55.074Z,58.78
2022-08-22T03:20:07.280Z,58.44
2022-08-22T03:21:16.652Z,58.79
2022-08-22T03:22:26.669Z,58.37
2022-08-22T03:23:41.751Z,58.37
2022-08-22T03:24:52.889Z,58.75
2022-08-22T03:26:07.954Z,58.83
2022-08-22T03:27:31.390Z,58.96
2022-08-22T03:28:59.207Z,58.79
2022-08-22T03:30:06.354Z,58.96
2022-08-22T03:31:16.741Z,58.57
2022-08-22T03:32:21.259Z,59.01
2022-08-22T03:33:27.382Z,58.48
2022-08-22T03:34:29.544Z,58.94
2022-08-22T03:35:40.202Z,58.52
2022-08-22T03:36:49.003Z,58.45
2022-08-22T03:37:56.493Z,58.81
2022-08-22T03:39:17.090Z,58.93
2022-08-22T03:40:32.126Z,58.79
2022-08-22T03:42:09.907Z,58.52
2022-08-22T03:43:45.304Z,59.02
2022-08-22T03:45:26.534Z,58.48
2022-08-22T03:47:03.598Z,58.56
2022-08-22T03:48:35.601Z,58.52
2022-08-22T03:50:05.874Z,58.50
2022-08-22T03:51:21.157Z,58.46
2022-08-22T03:53:04.914Z,58.63
2022-08-22T03:54:37.668Z,58.62
2022-08-22T03:56:10.287Z,58.92
2022-08-22T03:57:44.370Z,59.01
2022-08-22T03:59:10.133Z,58.45
2022-08-22T04:00:22.991Z,58.43
2022-08-22T04:02:01.596Z,59.09
2022-08-22T04:03:25.635Z,58.46
2022-08-22T04:05:02.579Z,59.00
2022-08-22T04:06:50.462Z,58.64
2022-08-22T04:08:36.245Z,58.55
2022-08-22T04:10:16.214Z,58.86
2022-08-22T04:11:50.347Z,59.26
2022-08-22T04:13:25.041Z,58.92
2022-08-22T04:14:50.767Z,59.13
2022-08-22T04:16:38.518Z,59.05
2022-08-22T04:18:05.787Z,59.09
2022-08-22T04:19:33.421Z,59.22
2022-08-22T04:21:10.762Z,58.63
2022-08-22T04:22:51.157Z,58.81
2022-08-22T04:24:13.741Z,59.29
2022-08-22T04:25:23.057Z,58.68
2022-08-22T04:26:36.880Z,58.88
2022-08-22T04:27:48.746Z,59.15
2022-08-22T04:28:59.231Z,59.14
2022-08-22T04:30:08.072Z,59.07
2022-08-22T04:31:12.269Z,59.41
2022-08-22T04:32:21.337Z,58.89
2022-08-22T04:33:30.441Z,58.84
2022-08-22T04:34:40.091Z,59.13
2022-08-22T04:35:46.391Z,59.68
2022-08-22T04:36:56.163Z,59.02
2022-08-22T04:38:02.824Z,58.94
2022-08-22T04:39:13.219Z,59.23
2022-08-22T04:40:24.313Z,58.94
2022-08-22T04:41:46.613Z,58.56
2022-08-22T04:42:54.500Z,58.66
2022-08-22T04:44:04.906Z,58.96
2022-08-22T04:45:13.409Z,59.15
2022-08-22T04:46:26.246Z,59.22
2022-08-22T04:47:41.521Z,59.14
2022-08-22T04:48:52.640Z,58.60
2022-08-22T04:49:59.737Z,59.27
2022-08-22T04:51:07.536Z,58.91
2022-08-22T04:52:19.526Z,59.19
2022-08-22T04:53:33.941Z,59.10
2022-08-22T04:54:48.867Z,59.13
2022-08-22T04:56:07.227Z,58.94
2022-08-22T04:57:21.003Z,59.40
2022-08-22T04:58:41.606Z,58.76
2022-08-22T04:59:45.752Z,59.58
2022-08-22T05:00:56.186Z,58.94
2022-08-22T05:02:06.116Z,59.27
2022-08-22T05:03:15.969Z,59.46
2022-08-22T05:04:23.736Z,58.92
2022-08-22T05:05:31.443Z,59.20
2022-08-22T05:06:40.884Z,58.66
2022-08-22T05:07:46.818Z,58.59
2022-08-22T05:08:53.799Z,58.92
2022-08-22T05:10:10.532Z,58.52
2022-08-22T05:11:19.527Z,58.30
2022-08-22T05:12:30.075Z,57.92
2022-08-22T05:13:40.244Z,57.81
2022-08-22T05:14:47.655Z,57.66
2022-08-22T05:15:54.719Z,57.75
2022-08-22T05:16:57.819Z,58.13
2022-08-22T05:18:05.407Z,57.75
2022-08-22T05:19:14.437Z,57.84
2022-08-22T05:20:22.942Z,57.55
2022-08-22T05:21:29.715Z,57.35
2022-08-22T05:22:37.195Z,57.86
2022-08-22T05:23:43.681Z,57.81
2022-08-22T05:24:50.475Z,57.18
2022-08-22T05:25:57.291Z,57.08
2022-08-22T05:27:07.149Z,57.56
2022-08-22T05:28:16.088Z,57.55
2022-08-22T05:29:24.030Z,57.64
2022-08-22T05:30:31.334Z,57.20
2022-08-22T05:31:38.801Z,56.85
2022-08-22T05:32:49.711Z,57.09
2022-08-22T05:33:57.744Z,56.85
2022-08-22T05:35:02.204Z,57.17
2022-08-22T05:36:09.210Z,57.27
2022-08-22T05:37:15.433Z,57.13
2022-08-22T05:38:23.357Z,57.11
2022-08-22T05:39:28.257Z,57.00
2022-08-22T05:40:34.968Z,57.46
2022-08-22T05:41:42.781Z,57.12
2022-08-22T05:42:46.758Z,56.34
2022-08-22T05:43:51.485Z,56.74
2022-08-22T05:44:54.533Z,56.86
2022-08-22T05:46:00.426Z,56.64
2022-08-22T05:47:06.725Z,56.64
2022-08-22T05:48:16.398Z,57.46
2022-08-22T05:49:22.429Z,56.56
2022-08-22T05:50:41.928Z,56.61
2022-08-22T05:51:50.285Z,57.29
2022-08-22T05:53:03.566Z,56.71
2022-08-22T05:54:12.360Z,56.52
2022-08-22T05:55:25.730Z,56.75
2022-08-22T05:56:36.752Z,55.87
2022-08-22T05:57:42.409Z,56.83
2022-08-22T05:58:51.923Z,56.27
2022-08-22T06:00:10.979Z,56.16
2022-08-22T06:01:25.407Z,56.34
2022-08-22T06:02:40.400Z,56.54
2022-08-22T06:03:53.702Z,56.21
2022-08-22T06:05:00.976Z,56.35
2022-08-22T06:06:16.313Z,56.06
2022-08-22T06:07:24.650Z,56.94
2022-08-22T06:08:33.450Z,56.17
2022-08-22T06:09:58.465Z,56.53
2022-08-22T06:11:08.586Z,56.02
2022-08-22T06:12:21.921Z,56.38
2022-08-22T06:13:33.457Z,56.35
2022-08-22T06:14:43.584Z,56.25
2022-08-22T06:15:48.570Z,55.97
2022-08-22T06:17:05.313Z,56.64
2022-08-22T06:18:12.887Z,56.30
2022-08-22T06:19:19.181Z,56.28
2022-08-22T06:20:25.308Z,56.69
2022-08-22T06:21:38.589Z,56.47
2022-08-22T06:22:50.345Z,56.89
2022-08-22T06:23:57.770Z,56.88
2022-08-22T06:25:07.118Z,57.12
2022-08-22T06:26:20.570Z,56.69
2022-08-22T06:27:31.325Z,57.17
2022-08-22T06:28:38.017Z,56.60
2022-08-22T06:30:03.081Z,56.93
2022-08-22T06:31:12.122Z,56.84
2022-08-22T06:32:44.466Z,56.97
2022-08-22T06:33:57.487Z,56.60
2022-08-22T06:35:03.953Z,56.46
2022-08-22T06:36:31.865Z,56.94
2022-08-22T06:37:39.161Z,57.03
2022-08-22T06:38:56.461Z,56.87
2022-08-22T06:40:01.152Z,56.72
2022-08-22T06:41:07.054Z,56.62
2022-08-22T06:42:16.783Z,57.09
2022-08-22T06:43:20.049Z,56.52
2022-08-22T06:44:28.584Z,57.55
2022-08-22T06:45:32.865Z,56.74
2022-08-22T06:46:38.942Z,56.27
2022-08-22T06:47:49.911Z,56.24
2022-08-22T06:48:56.747Z,57.34
2022-08-22T06:50:13.849Z,58.15
2022-08-22T06:51:18.812Z,57.41
2022-08-22T06:52:24.577Z,57.36
2022-08-22T06:53:32.784Z,58.07
2022-08-22T06:54:40.387Z,57.89
2022-08-22T06:55:46.477Z,59.31
2022-08-22T06:56:52.029Z,58.82
2022-08-22T06:57:58.017Z,57.52
2022-08-22T06:59:06.775Z,58.42
2022-08-22T07:00:15.018Z,57.62
2022-08-22T07:01:23.532Z,57.77
2022-08-22T07:02:31.046Z,58.91
2022-08-22T07:03:38.241Z,58.62
2022-08-22T07:04:40.366Z,59.94
2022-08-22T07:05:44.411Z,59.71
2022-08-22T07:06:50.463Z,58.69
2022-08-22T07:07:53.750Z,58.38
2022-08-22T07:08:56.627Z,59.84
2022-08-22T07:09:59.694Z,59.16
2022-08-22T07:11:09.886Z,59.06
2022-08-22T07:12:18.328Z,58.43
2022-08-22T07:13:21.315Z,60.32
2022-08-22T07:14:32.449Z,60.46
2022-08-22T07:15:37.810Z,59.47
2022-08-22T07:16:42.637Z,59.30
2022-08-22T07:17:51.244Z,59.03
2022-08-22T07:18:54.696Z,59.52
2022-08-22T07:20:01.559Z,61.63
2022-08-22T07:21:08.085Z,60.15
2022-08-22T07:22:14.882Z,60.09
2022-08-22T07:23:30.281Z,61.06
2022-08-22T07:24:33.657Z,59.79
2022-08-22T07:25:56.406Z,60.41
2022-08-22T07:27:17.330Z,61.48
2022-08-22T07:28:36.847Z,62.19
2022-08-22T07:30:03.103Z,60.83
2022-08-22T07:31:14.305Z,62.10
2022-08-22T07:32:25.325Z,60.91
2022-08-22T07:33:44.003Z,60.87
2022-08-22T07:35:03.408Z,61.30
2022-08-22T07:36:31.810Z,62.18
2022-08-22T07:37:48.485Z,62.43
2022-08-22T07:39:15.223Z,61.56
2022-08-22T07:40:23.896Z,62.30
2022-08-22T07:41:43.374Z,62.89
2022-08-22T07:42:50.173Z,61.94
2022-08-22T07:44:04.288Z,62.34
2022-08-22T07:45:11.101Z,62.55
2022-08-22T07:46:28.476Z,63.22
2022-08-22T07:47:49.794Z,62.04
2022-08-22T07:49:08.604Z,62.00
2022-08-22T07:50:18.178Z,61.97
2022-08-22T07:51:27.822Z,61.72
2022-08-22T07:52:38.035Z,60.66
2022-08-22T07:53:45.113Z,60.56
2022-08-22T07:54:51.985Z,61.18
2022-08-22T07:55:57.514Z,60.31
2022-08-22T07:57:03.062Z,60.80
2022-08-22T07:58:09.104Z,60.59
2022-08-22T07:59:21.444Z,60.72
2022-08-22T08:00:25.027Z,60.81
2022-08-22T08:01:29.640Z,60.90
2022-08-22T08:02:32.287Z,61.06
2022-08-22T08:03:35.617Z,61.17
2022-08-22T08:04:40.715Z,61.00
2022-08-22T08:05:46.403Z,60.54
2022-08-22T08:06:52.870Z,60.33
2022-08-22T08:07:56.735Z,60.49
2022-08-22T08:09:00.103Z,59.19
2022-08-22T08:10:12.790Z,59.75
2022-08-22T08:11:18.897Z,59.61
2022-08-22T08:12:29.905Z,58.33
2022-08-22T08:13:36.454Z,58.69
2022-08-22T08:14:41.209Z,58.89
2022-08-22T08:15:46.552Z,58.85
2022-08-22T08:17:03.205Z,59.07
2022-08-22T08:18:09.047Z,58.24
2022-08-22T08:19:13.690Z,58.24
2022-08-22T08:20:20.053Z,58.07
2022-08-22T08:21:31.844Z,58.15
2022-08-22T08:22:34.580Z,57.96
2022-08-22T08:23:43.949Z,58.35
2022-08-22T08:24:48.494Z,58.09
2022-08-22T08:26:03.049Z,57.93
2022-08-22T08:27:30.604Z,58.11
2022-08-22T08:28:38.503Z,57.68
2022-08-22T08:29:46.444Z,56.39
2022-08-22T08:31:00.429Z,57.17
2022-08-22T08:32:06.048Z,57.18
2022-08-22T08:33:25.349Z,57.78
2022-08-22T08:34:34.731Z,57.17
2022-08-22T08:36:02.943Z,55.69
2022-08-22T08:37:13.341Z,53.92
2022-08-22T08:38:20.493Z,53.44
2022-08-22T08:39:34.969Z,54.06
2022-08-22T08:41:13.908Z,52.60
2022-08-22T08:43:00.082Z,51.12
2022-08-22T08:44:13.250Z,52.75
2022-08-22T08:45:28.894Z,53.14
2022-08-22T08:46:57.834Z,52.50
2022-08-22T08:48:18.212Z,52.85
2022-08-22T08:49:42.960Z,53.61
2022-08-22T08:51:02.087Z,53.84
2022-08-22T08:52:39.183Z,53.12
2022-08-22T08:54:11.726Z,51.45
2022-08-22T08:55:27.606Z,51.49
2022-08-22T08:56:36.305Z,50.48
2022-08-22T08:57:52.670Z,50.98
2022-08-22T08:59:02.752Z,51.33
2022-08-22T09:00:11.751Z,52.38
2022-08-22T09:01:38.916Z,52.28
2022-08-22T09:02:57.663Z,51.62
2022-08-22T09:04:23.282Z,52.31
2022-08-22T09:05:55.972Z,51.57
2022-08-22T09:07:35.790Z,51.91
2022-08-22T09:09:09.020Z,49.66
2022-08-22T09:10:29.341Z,49.78
2022-08-22T09:12:08.060Z,50.68
2022-08-22T09:13:40.613Z,50.57
2022-08-22T09:15:11.814Z,50.97
2022-08-22T09:16:39.000Z,51.54
2022-08-22T09:18:25.657Z,50.63
2022-08-22T09:20:02.084Z,50.68
2022-08-22T09:21:46.673Z,51.03
2022-08-22T09:23:30.696Z,50.92
2022-08-22T09:25:05.962Z,50.13
2022-08-22T09:26:16.730Z,49.15
2022-08-22T09:27:29.982Z,47.80
2022-08-22T09:28:41.690Z,47.12
2022-08-22T09:29:54.692Z,47.47
2022-08-22T09:31:44.814Z,48.65
2022-08-22T09:32:57.938Z,48.26
2022-08-22T09:34:08.603Z,49.06
2022-08-22T09:35:23.546Z,48.84
2022-08-22T09:36:32.456Z,48.64
2022-08-22T09:37:49.825Z,49.22
2022-08-22T09:38:57.701Z,48.83
2022-08-22T09:40:08.464Z,47.83
2022-08-22T09:41:26.318Z,47.60
2022-08-22T09:42:35.074Z,47.65
2022-08-22T09:43:45.139Z,48.67
2022-08-22T09:45:00.975Z,48.21
2022-08-22T09:46:11.457Z,49.70
2022-08-22T09:47:25.213Z,48.29
2022-08-22T09:48:43.578Z,48.63
2022-08-22T09:49:53.143Z,48.08
2022-08-22T09:51:28.737Z,48.02
2022-08-22T09:52:48.175Z,49.55
2022-08-22T09:54:05.628Z,49.51
2022-08-22T09:55:27.892Z,48.76
2022-08-22T09:56:46.753Z,49.31
2022-08-22T09:57:56.398Z,49.00
2022-08-22T09:59:05.010Z,49.21
2022-08-22T10:00:25.715Z,50.05
2022-08-22T10:01:33.066Z,48.43
2022-08-22T10:02:44.795Z,46.30
2022-08-22T10:04:28.965Z,46.21
2022-08-22T10:05:43.643Z,46.42
2022-08-22T10:07:02.934Z,47.21
2022-08-22T10:08:31.570Z,45.38
2022-08-22T10:09:43.894Z,46.78
2022-08-22T10:11:07.876Z,47.43
2022-08-22T10:12:16.689Z,48.19
2022-08-22T10:13:32.905Z,48.42
2022-08-22T10:14:50.546Z,48.05
2022-08-22T10:16:01.280Z,47.90
2022-08-22T10:17:12.977Z,48.25
2022-08-22T10:18:29.941Z,47.33
2022-08-22T10:19:38.284Z,47.07
2022-08-22T10:20:54.797Z,47.74
2022-08-22T10:22:33.058Z,48.35
2022-08-22T10:23:40.445Z,48.98
2022-08-22T10:24:52.461Z,49.17
2022-08-22T10:26:11.231Z,48.56
2022-08-22T10:27:38.687Z,49.06
2022-08-22T10:28:50.112Z,48.37
2022-08-22T10:30:04.848Z,48.61
2022-08-22T10:31:22.357Z,46.83
2022-08-22T10:32:34.633Z,48.46
2022-08-22T10:33:44.410Z,48.47
2022-08-22T10:34:50.756Z,48.13
2022-08-22T10:36:04.980Z,47.41
2022-08-22T10:37:17.170Z,47.68
2022-08-22T10:38:32.339Z,47.93
2022-08-22T10:39:45.798Z,48.38
2022-08-22T10:40:54.562Z,48.16
2022-08-22T10:42:19.244Z,48.52
2022-08-22T10:43:36.977Z,48.31
2022-08-22T10:44:53.076Z,48.50
2022-08-22T10:46:03.498Z,48.56
2022-08-22T10:47:09.808Z,48.68
2022-08-22T10:48:43.894Z,49.92
2022-08-22T10:49:51.112Z,49.16
2022-08-22T10:51:03.632Z,49.45
2022-08-22T10:52:17.102Z,49.47
2022-08-22T10:53:30.481Z,47.36
2022-08-22T10:54:43.901Z,47.68
2022-08-22T10:55:49.469Z,48.44
2022-08-22T10:57:15.362Z,47.58
2022-08-22T10:58:28.190Z,47.01
2022-08-22T10:59:40.419Z,47.33
2022-08-22T11:00:49.768Z,47.17
2022-08-22T11:02:05.663Z,47.91
2022-08-22T11:03:21.819Z,48.24
2022-08-22T11:04:45.107Z,47.83
2022-08-22T11:05:50.250Z,47.39
2022-08-22T11:07:04.872Z,47.39
2022-08-22T11:08:31.500Z,47.92
2022-08-22T11:09:43.238Z,47.19
2022-08-22T11:11:02.870Z,46.92
2022-08-22T11:12:19.409Z,47.28
2022-08-22T11:13:31.713Z,47.34
2022-08-22T11:14:52.571Z,45.33
2022-08-22T11:16:06.709Z,47.27
2022-08-22T11:17:32.248Z,46.00
2022-08-22T11:19:02.597Z,46.38
2022-08-22T11:20:21.269Z,46.33
2022-08-22T11:21:31.522Z,46.45
2022-08-22T11:22:46.206Z,43.79
2022-08-22T11:24:03.154Z,46.50
2022-08-22T11:25:29.233Z,46.66
2022-08-22T11:26:47.670Z,45.08
2022-08-22T11:28:10.555Z,45.10
2022-08-22T11:29:26.286Z,44.45
2022-08-22T11:30:44.100Z,43.66
2022-08-22T11:32:05.664Z,45.32
2022-08-22T11:33:32.498Z,45.10
2022-08-22T11:34:54.803Z,45.39
2022-08-22T11:36:09.287Z,45.10
2022-08-22T11:37:42.987Z,46.82
2022-08-22T11:38:56.853Z,47.10
2022-08-22T11:40:06.619Z,47.39
2022-08-22T11:41:21.488Z,46.47
2022-08-22T11:42:33.245Z,46.75
2022-08-22T11:43:48.304Z,46.20
2022-08-22T11:44:56.163Z,45.85
2022-08-22T11:46:01.162Z,46.40
2022-08-22T11:47:11.899Z,46.36
2022-08-22T11:48:22.091Z,45.71
2022-08-22T11:49:35.113Z,46.12
2022-08-22T11:50:46.229Z,45.40
2022-08-22T11:52:04.271Z,45.65
2022-08-22T11:53:20.311Z,45.54
2022-08-22T11:54:33.334Z,45.36
2022-08-22T11:55:44.816Z,44.87
2022-08-22T11:56:54.085Z,45.88
2022-08-22T11:58:06.775Z,45.88
2022-08-22T11:59:22.903Z,44.80
2022-08-22T12:00:35.513Z,45.34
2022-08-22T12:01:48.737Z,44.51
2022-08-22T12:03:12.926Z,45.93
2022-08-22T12:04:22.360Z,45.61
2022-08-22T12:05:30.160Z,44.61
2022-08-22T12:06:46.882Z,45.16
2022-08-22T12:07:56.728Z,45.00
2022-08-22T12:09:29.849Z,43.65
2022-08-22T12:10:37.855Z,42.98
2022-08-22T12:11:49.098Z,44.69
2022-08-22T12:12:57.723Z,44.43
2022-08-22T12:14:07.019Z,43.28
2022-08-22T12:15:18.535Z,44.18
2022-08-22T12:16:27.246Z,44.30
2022-08-22T12:18:01.555Z,45.10
2022-08-22T12:19:16.574Z,44.91
2022-08-22T12:20:45.426Z,45.74
2022-08-22T12:22:13.074Z,46.24
2022-08-22T12:23:49.265Z,45.63
2022-08-22T12:25:09.663Z,45.23
2022-08-22T12:26:17.988Z,43.60
2022-08-22T12:27:48.614Z,44.50
2022-08-22T12:29:15.509Z,44.92
2022-08-22T12:30:28.372Z,45.94
2022-08-22T12:31:40.118Z,44.76
2022-08-22T12:33:22.080Z,45.26
2022-08-22T12:34:33.805Z,45.25
2022-08-22T12:35:45.461Z,44.04
2022-08-22T12:37:03.036Z,43.55
2022-08-22T12:38:26.443Z,43.43
2022-08-22T12:40:12.227Z,43.11
2022-08-22T12:41:38.758Z,43.97
2022-08-22T12:42:55.778Z,43.15
2022-08-22T12:44:16.474Z,44.01
2022-08-22T12:45:40.718Z,40.46
2022-08-22T12:46:54.904Z,40.66
2022-08-22T12:48:10.816Z,41.17
2022-08-22T12:49:30.909Z,41.09
2022-08-22T12:50:43.468Z,41.92
2022-08-22T12:52:04.358Z,39.09
2022-08-22T12:53:25.421Z,41.15
2022-08-22T12:55:09.712Z,40.94
2022-08-22T12:56:21.666Z,42.07
2022-08-22T12:57:38.904Z,41.62
2022-08-22T12:59:09.077Z,41.40
2022-08-22T13:00:26.735Z,41.69
2022-08-22T13:01:37.664Z,39.15
2022-08-22T13:02:44.916Z,39.68
2022-08-22T13:03:52.194Z,39.54
2022-08-22T13:04:56.491Z,41.45
2022-08-22T13:06:04.648Z,39.22
2022-08-22T13:07:18.774Z,40.17
2022-08-22T13:08:31.153Z,40.98
2022-08-22T13:09:38.218Z,42.09
2022-08-22T13:10:46.224Z,41.49
2022-08-22T13:11:52.381Z,41.41
2022-08-22T13:12:59.442Z,42.11
2022-08-22T13:14:04.912Z,42.92
2022-08-22T13:15:28.360Z,42.01
2022-08-22T13:16:41.686Z,39.42
2022-08-22T13:17:52.045Z,39.80
2022-08-22T13:18:58.941Z,41.43
2022-08-22T13:20:08.657Z,40.37
2022-08-22T13:21:16.135Z,41.25
2022-08-22T13:22:26.162Z,40.53
2022-08-22T13:23:39.956Z,39.73
2022-08-22T13:24:52.650Z,40.09
2022-08-22T13:26:11.557Z,39.62
2022-08-22T13:27:22.846Z,39.61
2022-08-22T13:28:27.910Z,40.08
2022-08-22T13:29:42.802Z,41.40
2022-08-22T13:30:46.739Z,40.37
2022-08-22T13:31:56.257Z,39.14
2022-08-22T13:33:08.558Z,39.21
2022-08-22T13:34:20.149Z,39.76
2022-08-22T13:35:34.341Z,39.10
2022-08-22T13:36:51.605Z,38.50
2022-08-22T13:37:59.442Z,39.29
2022-08-22T13:39:06.599Z,38.28
2022-08-22T13:40:15.018Z,37.89
2022-08-22T13:41:24.146Z,38.74
2022-08-22T13:42:31.001Z,39.40
2022-08-22T13:43:53.444Z,40.16
2022-08-22T13:44:58.229Z,42.61
2022-08-22T13:46:04.787Z,42.81
2022-08-22T13:47:14.678Z,40.63
2022-08-22T13:48:17.903Z,42.74
2022-08-22T13:49:32.380Z,42.89
2022-08-22T13:50:53.901Z,42.05
2022-08-22T13:52:14.437Z,42.31
2022-08-22T13:53:39.368Z,41.88
2022-08-22T13:54:53.394Z,41.93
2022-08-22T13:56:03.636Z,39.08
2022-08-22T13:57:14.079Z,36.69
2022-08-22T13:58:27.939Z,34.75
2022-08-22T13:59:51.000Z,36.53
2022-08-22T14:01:36.096Z,38.98
2022-08-22T14:02:56.902Z,40.02
2022-08-22T14:04:28.566Z,39.82
2022-08-22T14:05:37.947Z,41.43
2022-08-22T14:06:50.975Z,39.94
2022-08-22T14:08:06.646Z,41.35
2022-08-22T14:09:31.504Z,41.67
2022-08-22T14:10:40.428Z,41.60
2022-08-22T14:11:48.307Z,41.28
2022-08-22T14:13:30.245Z,41.40
2022-08-22T14:14:36.413Z,40.49
2022-08-22T14:15:44.795Z,40.33
2022-08-22T14:16:52.766Z,41.55
2022-08-22T14:17:59.301Z,41.61
2022-08-22T14:19:08.176Z,42.26
2022-08-22T14:20:32.156Z,40.77
2022-08-22T14:21:41.654Z,42.34
2022-08-22T14:22:58.945Z,40.60
2022-08-22T14:24:13.853Z,41.73
2022-08-22T14:25:22.180Z,41.75
2022-08-22T14:26:34.292Z,41.62
2022-08-22T14:27:59.272Z,39.27
2022-08-22T14:29:06.881Z,39.11
2022-08-22T14:30:17.064Z,40.29
2022-08-22T14:31:24.442Z,40.86
2022-08-22T14:32:41.864Z,38.79
2022-08-22T14:33:50.776Z,38.99
2022-08-22T14:35:01.486Z,38.04
2022-08-22T14:36:13.315Z,37.89
2022-08-22T14:37:22.104Z,37.67
2022-08-22T14:38:30.183Z,36.70
2022-08-22T14:39:41.546Z,36.60
2022-08-22T14:40:46.830Z,38.86
2022-08-22T14:41:59.458Z,39.32
2022-08-22T14:43:07.558Z,38.23
2022-08-22T14:44:16.978Z,40.55
2022-08-22T14:45:23.023Z,40.63
2022-08-22T14:46:31.756Z,41.22
2022-08-22T14:47:55.125Z,41.14
2022-08-22T14:49:28.734Z,41.87
2022-08-22T14:50:45.705Z,41.98
2022-08-22T14:51:56.011Z,41.61
2022-08-22T14:53:08.365Z,40.12
2022-08-22T14:54:14.031Z,40.66
2022-08-22T14:55:27.448Z,37.75
2022-08-22T14:56:32.717Z,37.17
2022-08-22T14:57:38.575Z,38.33
2022-08-22T14:58:48.599Z,38.42
2022-08-22T14:59:53.363Z,38.31
2022-08-22T15:00:59.305Z,38.31
2022-08-22T15:02:06.459Z,39.34
2022-08-22T15:03:14.104Z,40.38
2022-08-22T15:04:24.243Z,41.99
2022-08-22T15:05:30.474Z,40.91
2022-08-22T15:06:47.826Z,40.29
2022-08-22T15:07:59.477Z,39.97
2022-08-22T15:09:07.907Z,41.58
2022-08-22T15:10:21.533Z,41.62
2022-08-22T15:11:28.318Z,41.01
2022-08-22T15:12:38.543Z,41.17
2022-08-22T15:13:49.720Z,41.49
2022-08-22T15:14:55.679Z,41.93
2022-08-22T15:16:05.710Z,41.80
2022-08-22T15:17:10.955Z,41.92
2022-08-22T15:18:18.764Z,41.44
2022-08-22T15:19:28.811Z,41.53
2022-08-22T15:20:38.357Z,41.43
2022-08-22T15:21:49.003Z,41.53
2022-08-22T15:22:53.017Z,40.21
2022-08-22T15:24:00.392Z,40.14
2022-08-22T15:25:08.544Z,39.98
2022-08-22T15:26:18.261Z,39.83
2022-08-22T15:27:21.335Z,40.79
2022-08-22T15:28:25.973Z,40.82
2022-08-22T15:29:32.677Z,40.15
2022-08-22T15:30:44.234Z,39.20
2022-08-22T15:31:51.257Z,39.91
2022-08-22T15:32:53.260Z,40.04
2022-08-22T15:34:08.094Z,40.67
2022-08-22T15:35:27.528Z,40.09
2022-08-22T15:36:33.342Z,39.82
2022-08-22T15:37:55.954Z,41.40
2022-08-22T15:39:28.645Z,40.36
2022-08-22T15:40:40.759Z,39.19
2022-08-22T15:41:46.503Z,39.96
2022-08-22T15:42:51.600Z,41.98
2022-08-22T15:44:03.026Z,41.87
2022-08-22T15:45:08.588Z,41.84
2022-08-22T15:46:31.065Z,42.96
2022-08-22T15:47:38.114Z,42.69
2022-08-22T15:48:42.805Z,42.64
2022-08-22T15:49:54.751Z,40.77
2022-08-22T15:51:03.407Z,38.60
2022-08-22T15:52:27.146Z,38.74
2022-08-22T15:53:33.640Z,38.03
2022-08-22T15:55:07.744Z,37.42
2022-08-22T15:56:29.477Z,36.92
2022-08-22T15:57:35.030Z,37.96
2022-08-22T15:58:48.599Z,39.41
2022-08-22T15:59:55.503Z,40.32